createdAt,value
2017-11-04T00:02:01.371Z,52.70
2017-11-04T00:04:29.468Z,52.70
2017-11-04T00:06:58.317Z,53.20
2017-11-04T00:09:26.404Z,53.20
2017-11-04T00:11:54.492Z,53.50
2017-11-04T00:14:22.581Z,55.30
2017-11-04T00:16:51.441Z,56.00
2017-11-04T00:19:19.544Z,55.90
2017-11-04T00:21:48.395Z,55.30
2017-11-04T00:24:16.482Z,55.30
2017-11-04T00:26:44.547Z,55.50
2017-11-04T00:29:12.652Z,55.20
2017-11-04T00:31:41.488Z,55.20
2017-11-04T00:34:09.574Z,55.20
2017-11-04T00:36:37.703Z,55.20
2017-11-04T00:39:05.788Z,55.10
2017-11-04T00:41:34.623Z,55.70
2017-11-04T00:44:02.707Z,55.60
2017-11-04T00:46:30.780Z,55.60
2017-11-04T00:48:58.863Z,56.20
2017-11-04T00:51:27.713Z,56.00
2017-11-04T00:53:55.791Z,56.00
2017-11-04T00:56:23.863Z,55.30
2017-11-04T00:58:51.955Z,55.30
2017-11-04T01:01:20.023Z,55.90
2017-11-04T01:03:48.109Z,55.30
2017-11-04T01:06:16.179Z,55.30
2017-11-04T01:08:44.263Z,55.20
2017-11-04T01:11:13.188Z,55.90
2017-11-04T01:13:41.396Z,55.80
2017-11-04T01:16:09.480Z,55.20
2017-11-04T01:18:37.555Z,55.10
2017-11-04T01:21:05.631Z,55.10
2017-11-04T01:23:33.713Z,55.10
2017-11-04T01:26:01.785Z,55.00
2017-11-04T01:28:29.855Z,55.50
2017-11-04T01:30:57.927Z,56.80
2017-11-04T01:33:26.012Z,57.30
2017-11-04T01:35:54.916Z,58.00
2017-11-04T01:38:22.980Z,58.60
2017-11-04T01:40:51.827Z,57.50
2017-11-04T01:43:19.909Z,57.40
2017-11-04T01:45:47.976Z,57.30
2017-11-04T01:48:15.463Z,57.00
2017-11-04T01:50:44.307Z,55.70
2017-11-04T01:53:16.327Z,57.60
2017-11-04T01:55:45.163Z,58.60
2017-11-04T01:58:14.046Z,58.30
2017-11-04T02:00:42.131Z,58.10
2017-11-04T02:03:10.216Z,56.20
2017-11-04T02:05:38.286Z,58.00
2017-11-04T02:08:06.359Z,57.90
2017-11-04T02:10:34.440Z,57.80
2017-11-04T02:13:02.518Z,58.30
2017-11-04T02:15:30.596Z,58.00
2017-11-04T02:17:58.691Z,57.40
2017-11-04T02:20:26.757Z,55.90
2017-11-04T02:22:55.591Z,56.90
2017-11-04T02:25:23.679Z,56.90
2017-11-04T02:27:51.769Z,57.10
2017-11-04T02:30:19.844Z,56.80
2017-11-04T02:32:47.924Z,56.70
2017-11-04T02:35:16.005Z,57.60
2017-11-04T02:37:44.076Z,59.20
2017-11-04T02:40:12.156Z,60.10
2017-11-04T02:42:41.007Z,58.50
2017-11-04T02:45:09.093Z,58.40
2017-11-04T02:47:37.164Z,57.80
2017-11-04T02:50:05.244Z,57.50
2017-11-04T02:52:33.320Z,56.70
2017-11-04T02:55:01.404Z,58.20
2017-11-04T02:57:30.347Z,60.00
2017-11-04T02:59:58.496Z,59.90
2017-11-04T03:02:26.567Z,59.50
2017-11-04T03:04:54.664Z,58.70
2017-11-04T03:07:23.503Z,57.70
2017-11-04T03:09:51.584Z,57.70
2017-11-04T03:12:20.429Z,58.10
2017-11-04T03:14:48.513Z,58.10
2017-11-04T03:17:16.604Z,57.70
2017-11-04T03:19:44.687Z,57.10
2017-11-04T03:22:12.765Z,56.90
2017-11-04T03:24:41.623Z,57.30
2017-11-04T03:27:09.704Z,57.90
2017-11-04T03:29:37.789Z,57.10
2017-11-04T03:32:05.869Z,57.00
2017-11-04T03:34:33.949Z,57.40
2017-11-04T03:37:02.804Z,58.40
2017-11-04T03:39:30.897Z,58.20
2017-11-04T03:41:58.975Z,57.90
2017-11-04T03:44:27.056Z,57.60
2017-11-04T03:46:55.891Z,57.50
2017-11-04T03:49:23.977Z,57.40
2017-11-04T03:51:52.050Z,56.50
2017-11-04T03:54:20.136Z,56.60
2017-11-04T03:56:48.219Z,55.80
2017-11-04T03:59:16.308Z,55.90
2017-11-04T04:01:44.375Z,54.60
2017-11-04T04:04:12.459Z,54.60
2017-11-04T04:06:41.287Z,54.30
2017-11-04T04:09:09.360Z,54.30
2017-11-04T04:11:37.432Z,54.60
2017-11-04T04:14:06.271Z,53.00
2017-11-04T04:16:34.352Z,53.00
2017-11-04T04:19:03.210Z,54.80
2017-11-04T04:21:31.285Z,54.70
2017-11-04T04:23:59.355Z,56.10
2017-11-04T04:26:27.453Z,57.10
2017-11-04T04:28:55.533Z,58.30
2017-11-04T04:31:23.605Z,58.50
2017-11-04T04:33:51.680Z,58.00
2017-11-04T04:36:20.511Z,58.10
2017-11-04T04:38:49.355Z,57.70
2017-11-04T04:41:17.428Z,57.60
2017-11-04T04:43:45.511Z,56.00
2017-11-04T04:46:14.347Z,55.70
2017-11-04T04:48:42.435Z,55.70
2017-11-04T04:51:10.512Z,56.00
2017-11-04T04:53:38.595Z,55.50
2017-11-04T04:56:06.671Z,54.20
2017-11-04T04:58:34.739Z,54.20
2017-11-04T05:01:02.847Z,53.10
2017-11-04T05:03:31.685Z,52.50
2017-11-04T05:05:59.760Z,52.50
2017-11-04T05:08:27.828Z,52.80
2017-11-04T05:10:55.907Z,52.10
2017-11-04T05:13:23.975Z,54.20
2017-11-04T05:15:52.051Z,53.50
2017-11-04T05:18:20.125Z,52.30
2017-11-04T05:20:48.192Z,51.10
2017-11-04T05:23:16.268Z,51.30
2017-11-04T05:25:44.343Z,51.10
2017-11-04T05:28:12.417Z,53.70
2017-11-04T05:30:40.500Z,56.30
2017-11-04T05:33:08.567Z,56.70
2017-11-04T05:35:36.643Z,58.70
2017-11-04T05:38:04.724Z,60.80
2017-11-04T05:40:32.801Z,57.70
2017-11-04T05:43:00.863Z,57.90
2017-11-04T05:45:29.304Z,59.40
2017-11-04T05:47:57.376Z,60.70
2017-11-04T05:50:25.466Z,61.90
2017-11-04T05:52:53.544Z,61.50
2017-11-04T05:55:21.621Z,59.20
2017-11-04T05:57:49.693Z,56.50
2017-11-04T06:00:17.762Z,57.60
2017-11-04T06:02:45.835Z,60.00
2017-11-04T06:05:13.916Z,59.80
2017-11-04T06:07:41.978Z,59.40
2017-11-04T06:10:10.062Z,56.50
2017-11-04T06:12:38.136Z,54.90
2017-11-04T06:15:06.215Z,54.30
2017-11-04T06:17:34.288Z,55.60
2017-11-04T06:20:02.376Z,54.30
2017-11-04T06:22:31.211Z,54.40
2017-11-04T06:24:59.319Z,54.40
2017-11-04T06:27:27.392Z,53.70
2017-11-04T06:29:55.469Z,53.80
2017-11-04T06:32:23.534Z,53.60
2017-11-04T06:34:51.624Z,52.60
2017-11-04T06:37:19.687Z,52.40
2017-11-04T06:39:47.768Z,52.10
2017-11-04T06:42:15.832Z,52.10
2017-11-04T06:44:43.899Z,53.50
2017-11-04T06:47:11.973Z,53.50
2017-11-04T06:49:40.053Z,53.60
2017-11-04T06:52:08.124Z,52.70
2017-11-04T06:54:36.207Z,51.50
2017-11-04T06:57:04.268Z,51.40
2017-11-04T06:59:32.348Z,53.20
2017-11-04T07:02:00.420Z,53.40
2017-11-04T07:04:28.500Z,53.70
2017-11-04T07:06:57.330Z,51.70
2017-11-04T07:09:25.412Z,51.70
2017-11-04T07:11:54.247Z,51.80
2017-11-04T07:14:22.321Z,51.80
2017-11-04T07:16:50.388Z,50.70
2017-11-04T07:19:18.464Z,50.00
2017-11-04T07:21:46.535Z,49.80
2017-11-04T07:24:14.603Z,49.30
2017-11-04T07:26:42.681Z,49.90
2017-11-04T07:29:10.757Z,50.80
2017-11-04T07:31:38.824Z,50.50
2017-11-04T07:34:06.896Z,49.30
2017-11-04T07:36:34.966Z,50.10
2017-11-04T07:39:03.031Z,49.80
2017-11-04T07:41:31.115Z,49.10
2017-11-04T07:43:59.180Z,49.60
2017-11-04T07:46:27.264Z,50.70
2017-11-04T07:48:55.332Z,50.50
2017-11-04T07:51:23.406Z,50.00
2017-11-04T07:53:51.463Z,49.80
2017-11-04T07:56:19.540Z,49.80
2017-11-04T07:58:47.615Z,50.40
2017-11-04T08:01:15.697Z,51.10
2017-11-04T08:03:43.780Z,51.20
2017-11-04T08:06:11.840Z,51.10
2017-11-04T08:08:39.911Z,51.80
2017-11-04T08:11:07.983Z,52.00
2017-11-04T08:13:36.057Z,51.20
2017-11-04T08:16:04.132Z,50.70
2017-11-04T08:18:32.984Z,50.20
2017-11-04T08:21:01.063Z,50.20
2017-11-04T08:23:29.139Z,50.20
2017-11-04T08:25:57.212Z,50.90
2017-11-04T08:28:25.304Z,51.10
2017-11-04T08:30:53.379Z,51.90
2017-11-04T08:33:21.456Z,52.70
2017-11-04T08:35:49.527Z,52.60
2017-11-04T08:38:17.655Z,51.70
2017-11-04T08:40:46.499Z,51.40
2017-11-04T08:43:15.336Z,50.70
2017-11-04T08:45:43.421Z,50.70
2017-11-04T08:48:11.492Z,50.30
2017-11-04T08:50:39.573Z,50.60
2017-11-04T08:53:07.651Z,50.00
2017-11-04T08:55:35.735Z,50.30
2017-11-04T08:58:03.820Z,51.70
2017-11-04T09:00:32.682Z,50.40
2017-11-04T09:03:01.219Z,50.40
2017-11-04T09:05:29.395Z,50.40
2017-11-04T09:07:57.467Z,50.50
2017-11-04T09:10:25.545Z,51.30
2017-11-04T09:12:54.248Z,51.30
2017-11-04T09:15:22.326Z,51.60
2017-11-04T09:17:50.402Z,52.20
2017-11-04T09:20:18.492Z,52.60
2017-11-04T09:22:46.563Z,53.00
2017-11-04T09:25:15.621Z,53.70
2017-11-04T09:27:43.701Z,53.40
2017-11-04T09:30:11.797Z,53.50
2017-11-04T09:32:39.876Z,53.50
2017-11-04T09:35:07.977Z,54.70
2017-11-04T09:37:36.046Z,55.20
2017-11-04T09:40:04.124Z,54.50
2017-11-04T09:42:33.029Z,53.70
2017-11-04T09:45:01.875Z,53.40
2017-11-04T09:47:29.949Z,53.30
2017-11-04T09:49:58.023Z,53.50
2017-11-04T09:52:26.127Z,54.40
2017-11-04T09:54:54.962Z,55.90
2017-11-04T09:57:23.049Z,55.40
2017-11-04T09:59:51.145Z,56.10
2017-11-04T10:02:19.235Z,55.20
2017-11-04T10:04:47.305Z,53.80
2017-11-04T10:07:15.381Z,53.40
2017-11-04T10:09:43.451Z,52.90
2017-11-04T10:12:11.533Z,52.10
2017-11-04T10:14:40.406Z,52.00
2017-11-04T10:17:08.532Z,52.00
2017-11-04T10:19:36.621Z,51.80
2017-11-04T10:22:04.710Z,51.70
2017-11-04T10:24:32.792Z,51.60
2017-11-04T10:27:00.866Z,51.70
2017-11-04T10:29:28.956Z,50.80
2017-11-04T10:31:57.816Z,51.30
2017-11-04T10:34:25.883Z,51.20
2017-11-04T10:36:53.963Z,50.30
2017-11-04T10:39:22.040Z,50.40
2017-11-04T10:41:50.178Z,49.90
2017-11-04T10:44:18.269Z,50.90
2017-11-04T10:46:46.376Z,50.80
2017-11-04T10:49:14.464Z,51.20
2017-11-04T10:51:43.332Z,50.80
2017-11-04T10:54:11.405Z,50.80
2017-11-04T10:56:39.483Z,49.80
2017-11-04T10:59:07.557Z,49.50
2017-11-04T11:01:35.652Z,49.10
2017-11-04T11:04:04.511Z,50.40
2017-11-04T11:06:32.579Z,50.40
2017-11-04T11:09:00.669Z,49.90
2017-11-04T11:11:28.746Z,50.30
2017-11-04T11:13:57.583Z,53.40
2017-11-04T11:16:25.662Z,53.40
2017-11-04T11:18:53.742Z,49.40
2017-11-04T11:21:21.818Z,49.50
2017-11-04T11:23:49.931Z,49.50
2017-11-04T11:26:18.047Z,50.10
2017-11-04T11:28:46.890Z,49.20
2017-11-04T11:31:14.968Z,49.20
2017-11-04T11:33:43.804Z,48.30
2017-11-04T11:36:11.883Z,48.30
2017-11-04T11:38:39.968Z,48.50
2017-11-04T11:41:08.116Z,48.30
2017-11-04T11:43:36.192Z,48.10
2017-11-04T11:46:04.276Z,47.70
2017-11-04T11:48:32.355Z,47.30
2017-11-04T11:51:00.558Z,46.50
2017-11-04T11:53:28.636Z,47.10
2017-11-04T11:55:56.743Z,47.60
2017-11-04T11:58:24.827Z,48.30
2017-11-04T12:00:52.916Z,48.50
2017-11-04T12:03:20.994Z,48.30
2017-11-04T12:05:49.099Z,47.80
2017-11-04T12:08:17.302Z,48.30
2017-11-04T12:10:45.393Z,47.50
2017-11-04T12:13:13.467Z,47.50
2017-11-04T12:15:41.547Z,47.40
2017-11-04T12:18:09.657Z,47.60
2017-11-04T12:20:37.754Z,46.80
2017-11-04T12:23:06.603Z,46.60
2017-11-04T12:25:34.688Z,46.50
2017-11-04T12:28:02.769Z,45.40
2017-11-04T12:30:30.843Z,46.30
2017-11-04T12:32:58.927Z,46.80
2017-11-04T12:35:27.787Z,45.40
2017-11-04T12:37:55.867Z,45.40
2017-11-04T12:40:23.943Z,46.80
2017-11-04T12:42:52.028Z,46.90
2017-11-04T12:45:20.099Z,47.80
2017-11-04T12:47:48.187Z,50.60
2017-11-04T12:50:17.036Z,47.20
2017-11-04T12:52:45.136Z,47.20
2017-11-04T12:55:13.207Z,47.50
2017-11-04T12:57:41.283Z,47.70
2017-11-04T13:00:09.354Z,46.60
2017-11-04T13:02:37.448Z,46.60
2017-11-04T13:05:06.292Z,46.40
2017-11-04T13:07:34.379Z,46.30
2017-11-04T13:10:02.460Z,46.30
2017-11-04T13:12:30.552Z,46.90
2017-11-04T13:14:59.399Z,46.80
2017-11-04T13:17:27.497Z,46.80
2017-11-04T13:19:55.572Z,47.20
2017-11-04T13:22:23.664Z,47.40
2017-11-04T13:24:52.507Z,47.60
2017-11-04T13:27:20.601Z,47.50
2017-11-04T13:29:48.683Z,47.30
2017-11-04T13:32:17.548Z,47.50
2017-11-04T13:34:45.636Z,47.30
2017-11-04T13:37:13.724Z,46.90
2017-11-04T13:39:42.573Z,46.60
2017-11-04T13:42:10.664Z,46.50
2017-11-04T13:44:38.744Z,46.70
2017-11-04T13:47:06.829Z,46.40
2017-11-04T13:49:34.912Z,46.60
2017-11-04T13:52:03.764Z,46.70
2017-11-04T13:54:31.856Z,46.70
2017-11-04T13:56:59.941Z,46.70
2017-11-04T13:59:28.807Z,46.60
2017-11-04T14:01:56.871Z,46.60
2017-11-04T14:04:24.960Z,46.50
2017-11-04T14:06:53.046Z,46.60
2017-11-04T14:09:21.988Z,46.50
2017-11-04T14:11:50.072Z,46.40
2017-11-04T14:14:18.154Z,46.90
2017-11-04T14:16:46.257Z,46.70
2017-11-04T14:19:14.334Z,46.70
2017-11-04T14:21:43.197Z,47.40
2017-11-04T14:24:11.288Z,47.40
2017-11-04T14:26:39.373Z,47.10
2017-11-04T14:29:08.220Z,47.50
2017-11-04T14:31:36.328Z,47.40
2017-11-04T14:34:04.402Z,47.20
2017-11-04T14:36:32.492Z,47.30
2017-11-04T14:39:01.336Z,47.40
2017-11-04T14:41:29.424Z,47.30
2017-11-04T14:43:57.507Z,47.50
2017-11-04T14:46:25.600Z,47.70
2017-11-04T14:48:54.444Z,48.00
2017-11-04T14:51:22.531Z,48.00
2017-11-04T14:53:50.616Z,48.00
2017-11-04T14:56:18.703Z,48.10
2017-11-04T14:58:47.551Z,49.20
2017-11-04T15:01:15.644Z,49.10
2017-11-04T15:03:43.725Z,48.60
2017-11-04T15:06:11.820Z,49.00
2017-11-04T15:08:40.665Z,49.30
2017-11-04T15:11:08.749Z,49.20
2017-11-04T15:13:36.836Z,49.80
2017-11-04T15:16:04.913Z,50.50
2017-11-04T15:18:33.815Z,75.40
2017-11-04T15:21:02.657Z,50.00
2017-11-04T15:23:30.751Z,50.00
2017-11-04T15:25:58.920Z,49.20
2017-11-04T15:28:27.008Z,49.50
2017-11-04T15:30:55.086Z,49.80
2017-11-04T15:33:23.943Z,49.80
2017-11-04T15:35:52.019Z,49.80
2017-11-04T15:38:20.107Z,49.70
2017-11-04T15:40:48.179Z,49.70
2017-11-04T15:43:16.269Z,49.70
2017-11-04T15:45:44.352Z,50.20
2017-11-04T15:48:13.213Z,50.60
2017-11-04T15:50:41.299Z,50.60
2017-11-04T15:53:09.393Z,50.90
2017-11-04T15:55:38.235Z,51.30
2017-11-04T15:58:06.324Z,51.30
2017-11-04T16:00:34.414Z,51.20
2017-11-04T16:03:02.517Z,51.40
2017-11-04T16:05:30.591Z,52.70
2017-11-04T16:07:58.675Z,51.70
2017-11-04T16:10:26.778Z,52.20
2017-11-04T16:12:54.903Z,52.20
2017-11-04T16:15:22.971Z,52.20
2017-11-04T16:17:51.072Z,52.10
2017-11-04T16:20:19.147Z,52.10
2017-11-04T16:22:48.001Z,52.70
2017-11-04T16:25:17.144Z,52.80
2017-11-04T16:27:45.227Z,52.70
2017-11-04T16:30:13.300Z,52.80
2017-11-04T16:32:41.383Z,52.90
2017-11-04T16:35:09.465Z,53.30
2017-11-04T16:37:37.556Z,53.80
2017-11-04T16:40:06.404Z,53.60
2017-11-04T16:42:34.496Z,53.60
2017-11-04T16:45:02.572Z,53.60
2017-11-04T16:47:30.661Z,53.80
2017-11-04T16:49:59.517Z,54.20
2017-11-04T16:52:27.604Z,54.20
2017-11-04T16:54:55.680Z,54.20
2017-11-04T16:57:23.760Z,54.30
2017-11-04T16:59:51.840Z,54.40
2017-11-04T17:02:20.695Z,55.00
2017-11-04T17:04:48.823Z,54.90
2017-11-04T17:07:17.692Z,55.10
2017-11-04T17:09:46.569Z,55.30
2017-11-04T17:12:14.665Z,55.10
2017-11-04T17:14:43.515Z,55.70
2017-11-04T17:17:11.604Z,55.60
2017-11-04T17:19:39.684Z,55.50
2017-11-04T17:22:07.768Z,55.50
2017-11-04T17:24:36.667Z,55.60
2017-11-04T17:27:05.520Z,55.50
2017-11-04T17:29:33.605Z,55.50
2017-11-04T17:32:01.687Z,56.10
2017-11-04T17:34:29.763Z,55.60
2017-11-04T17:36:57.852Z,55.70
2017-11-04T17:39:25.938Z,55.80
2017-11-04T17:41:54.033Z,56.00
2017-11-04T17:44:22.176Z,56.30
2017-11-04T17:46:51.072Z,56.40
2017-11-04T17:49:19.913Z,56.30
2017-11-04T17:51:48.011Z,56.30
2017-11-04T17:54:16.092Z,56.40
2017-11-04T17:56:44.936Z,56.40
2017-11-04T17:59:13.086Z,56.40
2017-11-04T18:01:41.215Z,56.60
2017-11-04T18:04:09.296Z,58.00
2017-11-04T18:06:37.388Z,57.00
2017-11-04T18:09:06.231Z,58.00
2017-11-04T18:11:34.316Z,58.00
2017-11-04T18:14:02.442Z,58.40
2017-11-04T18:16:30.516Z,58.80
2017-11-04T18:18:59.367Z,58.90
2017-11-04T18:21:27.462Z,58.80
2017-11-04T18:23:56.308Z,59.50
2017-11-04T18:26:24.446Z,58.80
2017-11-04T18:28:52.537Z,58.80
2017-11-04T18:31:20.667Z,58.80
2017-11-04T18:33:49.518Z,58.80
2017-11-04T18:36:17.647Z,58.80
2017-11-04T18:38:45.740Z,58.80
2017-11-04T18:41:14.579Z,58.00
2017-11-04T18:43:42.669Z,57.90
2017-11-04T18:46:11.525Z,58.20
2017-11-04T18:48:39.615Z,58.10
2017-11-04T18:51:07.701Z,56.10
2017-11-04T18:53:36.555Z,58.00
2017-11-04T18:56:04.642Z,58.00
2017-11-04T18:58:32.723Z,58.80
2017-11-04T19:01:00.812Z,58.90
2017-11-04T19:03:29.669Z,58.90
2017-11-04T19:05:57.770Z,58.90
2017-11-04T19:08:25.845Z,58.90
2017-11-04T19:10:54.683Z,58.90
2017-11-04T19:13:22.767Z,58.80
2017-11-04T19:15:50.845Z,58.90
2017-11-04T19:18:18.992Z,58.90
2017-11-04T19:20:47.071Z,58.90
2017-11-04T19:23:15.188Z,58.90
2017-11-04T19:25:43.259Z,58.90
2017-11-04T19:28:11.403Z,59.60
2017-11-04T19:30:39.527Z,58.90
2017-11-04T19:33:08.376Z,58.90
2017-11-04T19:35:36.460Z,58.90
2017-11-04T19:38:04.544Z,59.50
2017-11-04T19:40:32.630Z,57.50
2017-11-04T19:43:01.712Z,57.20
2017-11-04T19:45:29.898Z,57.10
2017-11-04T19:47:58.799Z,58.80
2017-11-04T19:50:27.703Z,58.90
2017-11-04T19:52:55.809Z,58.90
2017-11-04T19:55:23.887Z,58.90
2017-11-04T19:57:51.967Z,58.90
2017-11-04T20:00:20.145Z,58.90
2017-11-04T20:02:48.235Z,58.90
2017-11-04T20:05:16.979Z,61.40
2017-11-04T20:07:45.083Z,58.00
2017-11-04T20:10:13.213Z,58.00
2017-11-04T20:12:41.299Z,58.00
2017-11-04T20:15:09.426Z,57.70
2017-11-04T20:17:38.355Z,58.00
2017-11-04T20:20:06.446Z,58.00
2017-11-04T20:22:34.684Z,58.00
2017-11-04T20:25:02.909Z,57.20
2017-11-04T20:27:31.079Z,57.20
2017-11-04T20:29:59.203Z,58.80
2017-11-04T20:32:28.133Z,58.90
2017-11-04T20:34:56.270Z,58.90
2017-11-04T20:37:25.164Z,58.90
2017-11-04T20:39:54.068Z,59.50
2017-11-04T20:42:22.135Z,59.50
2017-11-04T20:44:50.229Z,61.40
2017-11-04T20:47:18.501Z,58.90
2017-11-04T20:49:46.632Z,58.90
2017-11-04T20:52:14.761Z,58.90
2017-11-04T20:54:43.443Z,58.80
2017-11-04T20:57:11.552Z,59.30
2017-11-04T20:59:39.704Z,59.60
2017-11-04T21:02:07.925Z,59.80
2017-11-04T21:04:36.052Z,59.90
2017-11-04T21:07:04.944Z,60.10
2017-11-04T21:09:33.066Z,59.90
2017-11-04T21:12:01.975Z,60.30
2017-11-04T21:14:30.831Z,60.80
2017-11-04T21:16:59.120Z,60.80
2017-11-04T21:19:27.251Z,60.70
2017-11-04T21:21:55.391Z,60.40
2017-11-04T21:24:23.494Z,60.70
2017-11-04T21:26:51.559Z,60.80
2017-11-04T21:29:20.468Z,60.90
2017-11-04T21:31:48.549Z,60.80
2017-11-04T21:34:16.680Z,61.20
2017-11-04T21:36:44.808Z,61.80
2017-11-04T21:39:12.993Z,62.10
2017-11-04T21:41:41.162Z,63.40
2017-11-04T21:44:09.286Z,62.40
2017-11-04T21:46:37.411Z,62.70
2017-11-04T21:49:05.493Z,62.90
2017-11-04T21:51:33.568Z,63.00
2017-11-04T21:54:01.672Z,63.10
2017-11-04T21:56:29.755Z,62.80
2017-11-04T21:58:57.828Z,63.00
2017-11-04T22:01:25.907Z,63.00
2017-11-04T22:03:54.078Z,62.60
2017-11-04T22:06:22.196Z,62.40
2017-11-04T22:08:50.330Z,62.40
2017-11-04T22:11:18.463Z,62.30
2017-11-04T22:13:47.396Z,62.50
2017-11-04T22:16:15.477Z,62.50
2017-11-04T22:18:43.607Z,62.20
2017-11-04T22:21:12.482Z,62.50
2017-11-04T22:23:40.564Z,62.40
2017-11-04T22:26:09.476Z,62.60
2017-11-04T22:28:37.658Z,62.50
2017-11-04T22:31:05.736Z,63.00
2017-11-04T22:33:34.579Z,63.30
2017-11-04T22:36:02.729Z,62.80
2017-11-04T22:38:30.872Z,63.00
2017-11-04T22:40:58.945Z,62.80
2017-11-04T22:43:27.085Z,63.20
2017-11-04T22:45:55.984Z,63.10
2017-11-04T22:48:24.911Z,63.20
2017-11-04T22:50:52.982Z,63.10
2017-11-04T22:53:21.119Z,63.00
2017-11-04T22:55:49.968Z,63.30
2017-11-04T22:58:18.087Z,63.20
2017-11-04T23:00:46.932Z,62.70
2017-11-04T23:03:15.034Z,62.80
2017-11-04T23:05:43.109Z,62.40
2017-11-04T23:08:11.191Z,63.20
2017-11-04T23:10:40.036Z,62.50
2017-11-04T23:13:08.296Z,62.50
2017-11-04T23:15:36.437Z,62.50
2017-11-04T23:18:05.283Z,61.40
2017-11-04T23:20:33.411Z,61.30
2017-11-04T23:23:02.286Z,61.80
2017-11-04T23:25:31.215Z,62.20
2017-11-04T23:27:59.291Z,62.10
2017-11-04T23:30:27.379Z,62.20
2017-11-04T23:32:55.452Z,62.30
2017-11-04T23:35:23.588Z,62.30
2017-11-04T23:37:52.424Z,63.40
2017-11-04T23:40:20.512Z,63.30
2017-11-04T23:42:48.588Z,63.70
2017-11-04T23:45:16.740Z,63.80
2017-11-04T23:47:44.814Z,64.30
2017-11-04T23:50:12.899Z,63.80
2017-11-04T23:52:40.975Z,63.60
2017-11-04T23:55:09.060Z,63.80
2017-11-04T23:57:37.148Z,63.00
